createdAt,value
2019-02-20T00:02:32.067Z,4.40
2019-02-20T00:07:46.679Z,4.30
2019-02-20T00:13:01.204Z,4.20
2019-02-20T00:18:15.427Z,4.20
2019-02-20T00:23:30.224Z,4.10
2019-02-20T00:28:44.315Z,4.10
2019-02-20T00:33:58.583Z,4.10
2019-02-20T00:39:13.081Z,4.00
2019-02-20T00:44:49.896Z,3.90
2019-02-20T00:50:04.630Z,3.80
2019-02-20T00:55:19.302Z,3.80
2019-02-20T01:00:33.799Z,3.80
2019-02-20T01:05:48.469Z,3.70
2019-02-20T01:11:03.035Z,3.60
2019-02-20T01:16:17.730Z,3.70
2019-02-20T01:21:32.455Z,3.60
2019-02-20T01:26:47.337Z,3.70
2019-02-20T01:32:01.795Z,3.60
2019-02-20T01:37:16.466Z,3.60
2019-02-20T01:42:31.417Z,3.50
2019-02-20T01:47:46.222Z,3.50
2019-02-20T01:53:10.059Z,3.40
2019-02-20T01:58:19.641Z,3.40
2019-02-20T02:03:34.019Z,3.40
2019-02-20T02:08:48.234Z,3.40
2019-02-20T02:14:03.294Z,3.30
2019-02-20T02:19:18.087Z,3.30
2019-02-20T02:24:32.527Z,3.30
2019-02-20T02:29:46.993Z,3.10
2019-02-20T02:35:01.659Z,3.00
2019-02-20T02:40:15.775Z,3.00
2019-02-20T02:45:30.046Z,3.00
2019-02-20T02:50:44.718Z,3.00
2019-02-20T02:55:58.972Z,2.90
2019-02-20T03:01:13.715Z,2.90
2019-02-20T03:06:28.381Z,2.80
2019-02-20T03:11:43.079Z,2.80
2019-02-20T03:16:57.371Z,2.70
2019-02-20T03:22:11.802Z,2.70
2019-02-20T03:27:26.311Z,2.50
2019-02-20T03:32:41.075Z,2.50
2019-02-20T03:37:55.626Z,2.50
2019-02-20T03:43:10.395Z,2.50
2019-02-20T03:48:25.105Z,2.50
2019-02-20T03:53:39.437Z,2.50
2019-02-20T03:58:54.094Z,2.40
2019-02-20T04:04:08.437Z,2.30
2019-02-20T04:09:24.027Z,2.30
2019-02-20T04:14:38.825Z,2.30
2019-02-20T04:19:53.452Z,2.30
2019-02-20T04:25:08.146Z,2.20
2019-02-20T04:30:22.550Z,2.10
2019-02-20T04:35:36.802Z,2.10
2019-02-20T04:40:52.196Z,2.10
2019-02-20T04:46:08.572Z,2.10
2019-02-20T04:51:22.832Z,2.10
2019-02-20T04:56:37.351Z,2.10
2019-02-20T05:01:51.325Z,2.10
2019-02-20T05:07:08.030Z,2.00
2019-02-20T05:12:22.608Z,2.00
2019-02-20T05:17:38.608Z,1.90
2019-02-20T05:22:53.393Z,1.90
2019-02-20T05:28:08.093Z,1.80
2019-02-20T05:33:22.784Z,1.80
2019-02-20T05:38:37.324Z,1.70
2019-02-20T05:43:51.941Z,1.60
2019-02-20T05:49:06.583Z,1.60
2019-02-20T05:54:21.033Z,1.60
2019-02-20T05:59:35.452Z,1.70
2019-02-20T06:04:50.019Z,1.60
2019-02-20T06:10:04.526Z,1.60
2019-02-20T06:15:19.129Z,1.60
2019-02-20T06:20:33.526Z,1.60
2019-02-20T06:25:48.219Z,1.60
2019-02-20T06:31:04.508Z,1.60
2019-02-20T06:36:19.043Z,1.50
2019-02-20T06:41:39.143Z,1.50
2019-02-20T06:46:49.906Z,1.40
2019-02-20T06:52:04.548Z,1.40
2019-02-20T06:57:19.272Z,1.40
2019-02-20T07:02:35.710Z,1.40
2019-02-20T07:14:06.100Z,1.40
2019-02-20T07:20:07.322Z,1.50
2019-02-20T07:25:29.809Z,1.50
2019-02-20T07:30:51.784Z,1.50
2019-02-20T07:36:06.250Z,1.50
2019-02-20T07:41:24.950Z,1.50
2019-02-20T07:46:39.680Z,1.60
2019-02-20T07:51:58.128Z,1.60
2019-02-20T07:57:12.509Z,1.70
2019-02-20T08:02:27.255Z,1.70
2019-02-20T08:07:41.991Z,1.80
2019-02-20T08:12:56.877Z,1.80
2019-02-20T08:18:11.189Z,1.90
2019-02-20T08:23:25.434Z,2.00
2019-02-20T08:28:39.771Z,2.20
2019-02-20T08:33:54.313Z,2.30
2019-02-20T08:39:09.168Z,2.40
2019-02-20T08:44:23.506Z,2.50
2019-02-20T08:49:37.655Z,2.70
2019-02-20T08:54:51.938Z,2.90
2019-02-20T09:00:07.483Z,3.10
2019-02-20T09:05:22.986Z,3.30
2019-02-20T09:10:37.239Z,3.50
2019-02-20T09:15:51.585Z,3.70
2019-02-20T09:21:06.451Z,3.90
2019-02-20T09:26:20.962Z,4.10
2019-02-20T09:31:36.611Z,4.30
2019-02-20T09:36:50.942Z,4.50
2019-02-20T09:42:07.049Z,4.70
2019-02-20T09:47:24.211Z,4.90
2019-02-20T09:52:38.809Z,5.20
2019-02-20T09:57:52.902Z,5.40
2019-02-20T10:03:07.560Z,5.60
2019-02-20T10:08:22.131Z,5.80
2019-02-20T10:13:37.937Z,6.10
2019-02-20T10:18:52.394Z,6.40
2019-02-20T10:24:06.712Z,6.60
2019-02-20T10:29:21.698Z,6.80
2019-02-20T10:34:36.282Z,7.00
2019-02-20T10:39:50.764Z,7.30
2019-02-20T10:45:05.232Z,7.50
2019-02-20T10:50:20.142Z,7.80
2019-02-20T10:55:34.305Z,8.10
2019-02-20T11:00:49.203Z,8.40
2019-02-20T11:12:23.467Z,9.00
2019-02-20T11:17:38.330Z,9.30
2019-02-20T11:22:52.503Z,9.60
2019-02-20T11:28:06.852Z,9.80
2019-02-20T11:33:21.382Z,10.20
2019-02-20T11:38:35.799Z,10.50
2019-02-20T11:43:50.176Z,10.80
2019-02-20T11:49:04.630Z,11.10
2019-02-20T11:54:19.366Z,11.20
2019-02-20T11:59:36.399Z,11.30
2019-02-20T12:04:50.533Z,11.40
2019-02-20T12:10:05.808Z,11.50
2019-02-20T12:15:20.518Z,11.40
2019-02-20T12:20:35.369Z,11.30
2019-02-20T12:25:50.776Z,11.40
2019-02-20T12:31:05.461Z,11.40
2019-02-20T12:36:20.032Z,11.50
2019-02-20T12:41:34.789Z,11.40
2019-02-20T12:46:49.575Z,11.50
2019-02-20T12:52:04.340Z,11.70
2019-02-20T12:57:18.830Z,11.90
2019-02-20T13:02:33.520Z,12.30
2019-02-20T13:07:47.707Z,12.80
2019-02-20T13:13:02.468Z,13.40
2019-02-20T13:18:17.017Z,13.70
2019-02-20T13:23:31.675Z,14.10
2019-02-20T13:28:46.132Z,14.80
2019-02-20T13:34:00.595Z,15.80
2019-02-20T13:39:15.253Z,16.90
2019-02-20T13:44:29.847Z,17.90
2019-02-20T13:49:44.709Z,18.80
2019-02-20T13:54:59.424Z,19.50
2019-02-20T14:00:14.115Z,20.30
2019-02-20T14:05:29.036Z,20.60
2019-02-20T14:10:44.346Z,21.00
2019-02-20T14:16:00.418Z,21.40
2019-02-20T14:21:14.939Z,21.30
2019-02-20T14:26:29.349Z,21.40
2019-02-20T14:31:43.925Z,21.60
2019-02-20T14:36:58.915Z,21.80
2019-02-20T14:42:13.419Z,21.60
2019-02-20T14:47:28.131Z,20.80
2019-02-20T14:52:42.855Z,19.90
2019-02-20T14:57:57.420Z,18.90
2019-02-20T15:03:11.779Z,17.90
2019-02-20T15:08:26.448Z,16.90
2019-02-20T15:13:41.319Z,16.10
2019-02-20T15:18:56.400Z,15.50
2019-02-20T15:24:11.463Z,14.90
2019-02-20T15:29:27.647Z,14.50
2019-02-20T15:34:42.161Z,14.10
2019-02-20T15:39:56.569Z,13.80
2019-02-20T15:45:11.367Z,13.50
2019-02-20T15:50:25.797Z,13.40
2019-02-20T15:55:40.550Z,13.20
2019-02-20T16:00:54.836Z,13.00
2019-02-20T16:06:08.974Z,12.70
2019-02-20T16:11:23.171Z,12.60
2019-02-20T16:16:37.513Z,12.50
2019-02-20T16:21:52.538Z,12.30
2019-02-20T16:27:07.057Z,12.10
2019-02-20T16:32:21.599Z,12.00
2019-02-20T16:37:35.927Z,11.80
2019-02-20T16:42:50.815Z,11.70
2019-02-20T16:48:05.445Z,11.50
2019-02-20T16:53:20.111Z,11.30
2019-02-20T16:58:34.644Z,11.10
2019-02-20T17:03:49.203Z,11.00
2019-02-20T17:09:05.672Z,10.80
2019-02-20T17:14:22.217Z,10.70
2019-02-20T17:19:36.672Z,10.50
2019-02-20T17:24:51.123Z,10.40
2019-02-20T17:30:06.471Z,10.30
2019-02-20T17:35:21.295Z,10.20
2019-02-20T17:40:35.925Z,10.00
2019-02-20T17:45:51.752Z,9.90
2019-02-20T17:51:06.506Z,9.70
2019-02-20T17:56:21.016Z,9.60
2019-02-20T18:01:36.944Z,9.50
2019-02-20T18:06:54.672Z,9.60
2019-02-20T18:12:12.186Z,9.70
2019-02-20T18:17:26.855Z,9.70
2019-02-20T18:22:43.611Z,9.70
2019-02-20T18:28:26.984Z,9.60
2019-02-20T18:33:42.312Z,9.50
2019-02-20T18:38:57.784Z,9.40
2019-02-20T18:44:12.694Z,9.30
2019-02-20T18:49:27.422Z,9.20
2019-02-20T18:54:41.718Z,9.00
2019-02-20T18:59:56.541Z,8.90
2019-02-20T19:05:12.279Z,8.70
2019-02-20T19:10:36.003Z,8.50
2019-02-20T19:16:45.042Z,8.30
2019-02-20T19:22:37.938Z,8.10
2019-02-20T19:28:06.259Z,8.10
2019-02-20T19:33:54.690Z,7.90
2019-02-20T19:39:20.477Z,7.90
2019-02-20T19:44:58.687Z,7.90
2019-02-20T19:50:57.585Z,7.80
2019-02-20T19:56:54.250Z,7.70
2019-02-20T20:02:55.345Z,7.60
2019-02-20T20:08:36.537Z,7.40
2019-02-20T20:14:10.256Z,7.30
2019-02-20T20:19:50.534Z,7.20
2019-02-20T20:25:55.072Z,7.20
2019-02-20T20:31:36.894Z,7.10
2019-02-20T20:37:18.588Z,7.00
2019-02-20T20:43:29.269Z,7.00
2019-02-20T20:49:32.445Z,6.90
2019-02-20T20:55:26.876Z,6.70
2019-02-20T21:01:19.931Z,6.60
2019-02-20T21:07:07.326Z,6.50
2019-02-20T21:13:01.537Z,6.50
2019-02-20T21:18:55.167Z,6.50
2019-02-20T21:24:49.620Z,6.50
2019-02-20T21:31:00.459Z,6.50
2019-02-20T21:36:40.834Z,6.50
2019-02-20T21:42:36.410Z,6.40
2019-02-20T21:48:45.293Z,6.50
2019-02-20T21:54:38.721Z,6.40
2019-02-20T22:00:34.531Z,6.40
2019-02-20T22:06:57.275Z,6.40
2019-02-20T22:12:59.177Z,6.30
2019-02-20T22:18:58.676Z,6.30
2019-02-20T22:24:47.005Z,6.30
2019-02-20T22:30:23.744Z,6.30
2019-02-20T22:36:24.783Z,6.30
2019-02-20T22:42:11.850Z,6.20
2019-02-20T22:47:46.045Z,6.20
2019-02-20T22:53:43.992Z,6.10
2019-02-20T22:59:09.442Z,6.10
2019-02-20T23:05:10.032Z,6.00
2019-02-20T23:10:55.527Z,6.00
2019-02-20T23:16:14.422Z,5.90
2019-02-20T23:21:29.999Z,5.90
2019-02-20T23:26:44.966Z,5.90
2019-02-20T23:32:01.410Z,5.90
2019-02-20T23:37:15.838Z,5.90
2019-02-20T23:42:30.428Z,5.90
2019-02-20T23:47:44.623Z,5.90
2019-02-20T23:52:59.258Z,5.80
2019-02-20T23:58:14.030Z,5.80
